Time;durP1;ratioP1;P1;durP2;ratioP2;P2;SDS_P1;SDS_P2;PMS_P1;PMS_P2;Temp;Humidity;BMP_temperature;BMP_pressure;BME280_temperature;BME280_humidity;BME280_pressure;Samples;Min_cycle;Max_cycle;Signal;HPM_P1;HPM_P2
2022/12/09 00:02:15;;;;;;;13.45;6.13;;;;;;;2.50;83.22;100322.28;5055424;28;20098;-68
2022/12/09 00:04:40;;;;;;;14.13;7.70;;;;;;;2.47;83.66;100310.34;5061756;28;20597;-69
2022/12/09 00:07:05;;;;;;;11.32;7.00;;;;;;;2.47;84.06;100306.91;5061948;28;20324;-68
2022/12/09 00:09:31;;;;;;;12.13;7.18;;;;;;;2.48;84.20;100311.19;5047565;28;20071;-68
2022/12/09 00:11:56;;;;;;;11.38;7.28;;;;;;;2.48;84.11;100296.75;5044586;28;20098;-69
2022/12/09 00:14:22;;;;;;;11.68;5.78;;;;;;;2.51;84.70;100299.34;5061829;28;20040;-68
2022/12/09 00:16:47;;;;;;;8.48;5.95;;;;;;;2.54;84.07;100296.00;5042020;28;20383;-68
2022/12/09 00:19:12;;;;;;;13.40;6.60;;;;;;;2.58;83.00;100292.66;5031113;28;20045;-68
2022/12/09 00:21:38;;;;;;;9.95;5.75;;;;;;;2.62;82.95;100284.22;5055264;28;20070;-67
2022/12/09 00:24:05;;;;;;;9.15;5.45;;;;;;;2.66;82.76;100288.53;5057983;28;20101;-67
2022/12/09 00:26:32;;;;;;;8.75;6.05;;;;;;;2.69;82.63;100291.13;5058307;28;20024;-68
2022/12/09 00:28:59;;;;;;;10.82;6.93;;;;;;;2.72;83.33;100289.50;5061767;28;20041;-68
2022/12/09 00:31:27;;;;;;;8.68;6.38;;;;;;;2.75;82.49;100283.56;5054057;28;20098;-68
2022/12/09 00:33:56;;;;;;;8.48;5.57;;;;;;;2.77;82.61;100287.00;5065508;28;20513;-68
2022/12/09 00:36:22;;;;;;;14.00;6.60;;;;;;;2.81;82.44;100292.19;5065562;28;20044;-69
2022/12/09 00:38:48;;;;;;;12.93;6.90;;;;;;;2.80;81.84;100287.03;5065633;28;20032;-68
2022/12/09 00:41:15;;;;;;;10.32;6.70;;;;;;;2.83;82.02;100287.09;5064878;28;20671;-68
2022/12/09 00:43:41;;;;;;;10.38;6.05;;;;;;;2.84;81.79;100286.28;5064832;28;20041;-68
2022/12/09 00:46:07;;;;;;;15.02;6.05;;;;;;;2.86;81.91;100287.13;5065853;28;20509;-68
2022/12/09 00:48:33;;;;;;;15.15;7.07;;;;;;;2.85;82.51;100283.72;5050198;28;20045;-68
2022/12/09 00:50:59;;;;;;;12.20;6.85;;;;;;;2.85;82.62;100282.84;5057699;28;20162;-62
2022/12/09 00:53:24;;;;;;;9.60;5.93;;;;;;;2.86;83.20;100282.91;5060591;28;20033;-62
2022/12/09 00:55:50;;;;;;;10.32;6.97;;;;;;;2.85;82.50;100286.28;5065139;28;20135;-62
2022/12/09 00:58:15;;;;;;;11.27;7.18;;;;;;;2.82;83.12;100286.22;5060041;28;20052;-62
2022/12/09 01:00:40;;;;;;;13.00;7.43;;;;;;;2.80;83.38;100282.81;5063674;28;20036;-62
2022/12/09 01:03:06;;;;;;;12.02;6.53;;;;;;;2.80;82.95;100281.94;5069041;28;20537;-62
2022/12/09 01:05:34;;;;;;;11.68;6.70;;;;;;;2.78;83.32;100275.97;5065585;28;20071;-62
2022/12/09 01:07:59;;;;;;;13.45;6.93;;;;;;;2.75;83.80;100279.34;5062834;28;20037;-62
2022/12/09 01:10:25;;;;;;;19.33;8.02;;;;;;;2.74;83.36;100275.06;5044527;28;20033;-62
2022/12/09 01:12:50;;;;;;;13.85;8.68;;;;;;;2.73;84.14;100278.44;5052571;28;20382;-62
2022/12/09 01:15:16;;;;;;;12.10;6.65;;;;;;;2.73;84.13;100287.78;5062282;28;20032;-63
2022/12/09 01:17:41;;;;;;;12.25;7.78;;;;;;;2.73;84.57;100287.78;5041567;28;20052;-62
2022/12/09 01:20:08;;;;;;;14.02;7.57;;;;;;;2.70;84.91;100291.13;5032890;28;20144;-62
2022/12/09 01:22:34;;;;;;;12.60;7.85;;;;;;;2.71;85.04;100287.75;5037604;28;20033;-62
2022/12/09 01:24:59;;;;;;;12.27;7.32;;;;;;;2.73;85.41;100280.13;5037166;28;20044;-62
2022/12/09 01:27:25;;;;;;;17.25;7.78;;;;;;;2.73;85.75;100282.66;5044200;28;20041;-62
2022/12/09 01:29:50;;;;;;;15.93;7.93;;;;;;;2.73;85.85;100282.66;5044677;28;20060;-63
2022/12/09 01:32:16;;;;;;;11.82;7.40;;;;;;;2.74;85.39;100286.94;5043196;28;20040;-63
2022/12/09 01:34:41;;;;;;;11.23;7.07;;;;;;;2.74;85.95;100284.41;5036953;28;20041;-63
2022/12/09 01:37:07;;;;;;;13.60;7.25;;;;;;;2.73;85.71;100283.53;5044571;28;20139;-62
2022/12/09 01:39:32;;;;;;;12.15;7.68;;;;;;;2.75;86.05;100286.13;5043917;28;20790;-62
2022/12/09 01:42:01;;;;;;;15.07;7.60;;;;;;;2.76;85.81;100286.13;5041064;28;20503;-63
2022/12/09 01:44:26;;;;;;;12.90;7.57;;;;;;;2.76;85.94;100287.81;5053467;28;20021;-62
2022/12/09 01:46:57;;;;;;;12.25;7.88;;;;;;;2.75;86.13;100287.00;5063615;28;20076;-64
2022/12/09 01:49:30;;;;;;;15.35;7.88;;;;;;;2.73;86.64;100280.97;5063498;28;20272;-61
2022/12/09 01:52:19;;;;;;;20.73;9.65;;;;;;;2.69;87.04;100279.25;5055370;28;20535;-62
2022/12/09 01:54:46;;;;;;;12.50;7.97;;;;;;;2.70;87.47;100275.84;5061488;28;20135;-63
2022/12/09 01:57:11;;;;;;;11.57;7.03;;;;;;;2.70;87.00;100277.53;5063837;28;20055;-62
2022/12/09 01:59:38;;;;;;;11.80;6.80;;;;;;;2.72;87.14;100266.53;5063859;28;20583;-62
2022/12/09 02:02:08;;;;;;;13.75;7.63;;;;;;;2.74;87.28;100274.19;5048032;28;20041;-62
2022/12/09 02:04:38;;;;;;;14.38;8.52;;;;;;;2.74;87.47;100276.75;5042371;28;20068;-62
2022/12/09 02:07:08;;;;;;;14.35;7.90;;;;;;;2.75;87.09;100269.13;5051775;28;20039;-62
2022/12/09 02:09:34;;;;;;;13.75;7.70;;;;;;;2.75;86.93;100264.03;5048195;28;20147;-62
2022/12/09 02:12:27;;;;;;;14.23;7.43;;;;;;;2.77;86.62;100259.78;5043895;28;20533;-62
2022/12/09 02:15:05;;;;;;;11.75;7.18;;;;;;;2.80;86.85;100264.06;5057040;28;20033;-60
2022/12/09 02:17:30;;;;;;;14.05;7.75;;;;;;;2.81;86.92;100261.56;5051113;28;20044;-60
2022/12/09 02:20:11;;;;;;;15.00;8.38;;;;;;;2.80;86.77;100262.38;5063026;28;20043;-60
2022/12/09 02:22:43;;;;;;;14.50;8.10;;;;;;;2.78;86.90;100256.41;5063790;28;20591;-60
2022/12/09 02:25:35;;;;;;;12.23;7.68;;;;;;;2.78;87.00;100258.97;5053061;28;20063;-60
2022/12/09 02:28:27;;;;;;;15.45;8.68;;;;;;;2.78;87.14;100258.09;5050430;28;20032;-60
2022/12/09 02:31:31;;;;;;;12.63;7.82;;;;;;;2.76;86.62;100255.50;5063024;28;20040;-68
2022/12/09 02:34:17;;;;;;;15.40;8.68;;;;;;;2.74;86.51;100252.09;5058980;28;20402;-68
2022/12/09 02:37:17;;;;;;;15.68;8.90;;;;;;;2.64;87.57;100246.81;5063611;28;20167;-68
2022/12/09 02:40:00;;;;;;;13.18;7.05;;;;;;;2.57;88.67;100250.13;5044725;28;20041;-68
2022/12/09 02:42:31;;;;;;;14.23;8.35;;;;;;;2.53;88.60;100249.22;5064051;28;20029;-68
2022/12/09 02:45:00;;;;;;;16.00;9.38;;;;;;;2.50;88.77;100251.72;5063127;28;20030;-67
2022/12/09 02:47:29;;;;;;;13.52;8.57;;;;;;;2.50;88.76;100251.72;5029157;28;20037;-68
2022/12/09 02:49:59;;;;;;;15.32;8.98;;;;;;;2.47;88.63;100241.47;5054241;28;20064;-68
2022/12/09 02:52:26;;;;;;;13.95;8.63;;;;;;;2.47;88.95;100243.16;5046944;28;20589;-67
2022/12/09 02:54:52;;;;;;;15.68;8.70;;;;;;;2.46;89.18;100237.19;5036119;28;20037;-68
2022/12/09 02:57:23;;;;;;;13.68;9.02;;;;;;;2.48;89.32;100245.75;5042670;28;20033;-68
2022/12/09 02:59:48;;;;;;;14.32;8.73;;;;;;;2.45;89.23;100238.03;5042615;28;20037;-68
2022/12/09 03:02:13;;;;;;;15.52;9.43;;;;;;;2.44;89.54;100241.41;5045038;28;20051;-68
2022/12/09 03:04:43;;;;;;;17.98;9.82;;;;;;;2.43;89.30;100238.00;5045671;28;20056;-68
2022/12/09 03:07:18;;;;;;;17.65;9.80;;;;;;;2.43;88.92;100237.13;5053602;28;20585;-68
2022/12/09 03:09:47;;;;;;;15.70;9.18;;;;;;;2.46;89.68;100237.19;5058428;28;20037;-68
2022/12/09 03:12:16;;;;;;;15.70;9.73;;;;;;;2.49;89.52;100236.41;5049407;28;20113;-68
2022/12/09 03:14:47;;;;;;;14.38;8.07;;;;;;;2.52;89.20;100233.91;5048438;28;20041;-68
2022/12/09 03:17:23;;;;;;;11.63;8.35;;;;;;;2.51;88.92;100229.63;5050153;28;20036;-68
2022/12/09 03:19:59;;;;;;;14.18;8.60;;;;;;;2.51;88.62;100233.03;5064932;28;20481;-68
2022/12/09 03:22:32;;;;;;;13.63;8.80;;;;;;;2.54;88.51;100227.97;5065302;28;20039;-67
2022/12/09 03:25:11;;;;;;;13.88;9.15;;;;;;;2.57;88.50;100232.25;5062226;28;20037;-68
2022/12/09 03:27:56;;;;;;;14.48;9.27;;;;;;;2.56;88.21;100223.75;5060830;28;20037;-69
2022/12/09 03:30:21;;;;;;;15.32;10.35;;;;;;;2.54;87.94;100230.53;5051740;28;20084;-67
2022/12/09 03:32:49;;;;;;;20.48;9.32;;;;;;;2.52;87.68;100229.63;5063687;28;20071;-68
2022/12/09 03:35:25;;;;;;;17.55;9.60;;;;;;;2.52;87.94;100229.63;5051687;28;20041;-68
2022/12/09 03:37:52;;;;;;;14.57;8.60;;;;;;;2.53;87.63;100227.94;5053407;28;20545;-68
2022/12/09 03:40:27;;;;;;;12.82;8.40;;;;;;;2.55;88.25;100222.03;5064383;28;20113;-68
2022/12/09 03:43:10;;;;;;;17.30;8.88;;;;;;;2.57;88.39;100216.97;5058801;28;20837;-67
2022/12/09 03:45:36;;;;;;;13.73;8.95;;;;;;;2.55;87.89;100219.47;5056913;28;20068;-68
2022/12/09 03:48:01;;;;;;;14.40;8.45;;;;;;;2.56;87.96;100218.66;5065132;28;20024;-67
2022/12/09 03:50:33;;;;;;;15.07;8.25;;;;;;;2.58;88.16;100216.97;5030713;28;20128;-68
2022/12/09 03:53:13;;;;;;;15.13;8.07;;;;;;;2.59;87.90;100216.16;5054547;28;20119;-69
2022/12/09 03:55:46;;;;;;;15.73;8.18;;;;;;;2.58;88.54;100211.03;5052810;28;20804;-68
2022/12/09 03:58:13;;;;;;;12.98;8.77;;;;;;;2.56;88.37;100215.22;5065036;28;20033;-68
2022/12/09 04:00:39;;;;;;;15.00;9.35;;;;;;;2.52;88.47;100210.94;5064113;28;20509;-67
2022/12/09 04:03:05;;;;;;;18.05;9.32;;;;;;;2.50;88.23;100210.03;5055920;28;20082;-67
2022/12/09 04:05:31;;;;;;;13.65;8.77;;;;;;;2.48;88.43;100202.38;5058103;28;20037;-67
2022/12/09 04:07:56;;;;;;;13.32;8.07;;;;;;;2.47;88.98;100203.22;5053543;28;20044;-68
2022/12/09 04:10:22;;;;;;;14.90;9.23;;;;;;;2.46;89.38;100209.13;5059471;28;20110;-68
2022/12/09 04:12:47;;;;;;;16.63;9.02;;;;;;;2.47;88.96;100205.75;5064311;28;21057;-68
2022/12/09 04:15:12;;;;;;;15.07;8.70;;;;;;;2.48;88.82;100204.94;5046144;28;20037;-69
2022/12/09 04:17:38;;;;;;;18.02;9.25;;;;;;;2.48;89.27;100207.47;5054345;28;20070;-68
2022/12/09 04:20:04;;;;;;;11.10;7.35;;;;;;;2.51;89.30;100209.22;5062790;28;20032;-68
2022/12/09 04:22:30;;;;;;;15.77;8.77;;;;;;;2.52;88.98;100201.56;5068675;28;20062;-68
2022/12/09 04:24:55;;;;;;;12.68;8.23;;;;;;;2.52;89.02;100205.84;5061896;28;20113;-68
2022/12/09 04:27:21;;;;;;;15.93;8.68;;;;;;;2.53;89.58;100207.53;5029205;28;20039;-68
2022/12/09 04:29:46;;;;;;;14.50;8.73;;;;;;;2.51;89.19;100199.00;5046293;28;20201;-68
2022/12/09 04:32:11;;;;;;;14.90;9.50;;;;;;;2.49;88.59;100191.31;5051757;28;20054;-68
2022/12/09 04:34:37;;;;;;;15.27;9.05;;;;;;;2.43;88.24;100192.09;5065605;28;20032;-68
2022/12/09 04:37:02;;;;;;;16.02;9.27;;;;;;;2.40;88.44;100193.72;5065347;28;20052;-68
2022/12/09 04:39:28;;;;;;;14.02;9.23;;;;;;;2.37;88.18;100201.34;5054782;28;20033;-68
2022/12/09 04:41:53;;;;;;;15.82;8.98;;;;;;;2.32;88.89;100192.78;5052134;28;20430;-68
2022/12/09 04:44:18;;;;;;;10.85;7.47;;;;;;;2.30;89.30;100190.22;5066458;28;20610;-68
2022/12/09 04:46:44;;;;;;;13.30;8.15;;;;;;;2.28;89.19;100191.03;5065452;28;20074;-68
2022/12/09 04:49:09;;;;;;;18.30;9.70;;;;;;;2.21;89.02;100190.06;5065483;28;20041;-69
2022/12/09 04:51:35;;;;;;;15.25;9.20;;;;;;;2.16;89.39;100186.56;5061350;28;20098;-68
2022/12/09 04:54:00;;;;;;;18.27;9.80;;;;;;;2.11;89.35;100189.88;5058782;28;20128;-67
2022/12/09 04:56:25;;;;;;;15.48;8.55;;;;;;;2.06;89.41;100188.94;5045191;28;20147;-68
2022/12/09 04:58:51;;;;;;;15.85;9.13;;;;;;;2.02;89.53;100182.06;5045749;28;20707;-69
2022/12/09 05:01:18;;;;;;;15.43;9.52;;;;;;;1.98;89.53;100188.84;5049004;28;20566;-68
2022/12/09 05:03:52;;;;;;;13.85;9.07;;;;;;;1.93;89.75;100192.13;5047284;28;20025;-68
2022/12/09 05:06:19;;;;;;;15.93;9.63;;;;;;;1.87;89.69;100182.69;5055238;28;20115;-68
2022/12/09 05:08:45;;;;;;;15.73;9.07;;;;;;;1.82;89.96;100190.25;5051177;28;20029;-68
2022/12/09 05:11:12;;;;;;;11.65;7.50;;;;;;;1.77;90.07;100188.47;5044798;28;20040;-69
2022/12/09 05:13:38;;;;;;;14.77;9.05;;;;;;;1.71;89.94;100183.28;5044782;28;20216;-68
2022/12/09 05:16:07;;;;;;;12.35;7.57;;;;;;;1.65;90.25;100183.16;5026148;28;20063;-68
2022/12/09 05:18:32;;;;;;;14.43;8.90;;;;;;;1.59;90.59;100188.16;5044661;28;20052;-68
2022/12/09 05:20:58;;;;;;;15.10;7.95;;;;;;;1.55;90.38;100187.22;5040242;28;20508;-66
2022/12/09 05:23:24;;;;;;;13.63;8.88;;;;;;;1.51;90.54;100185.44;5041667;28;20033;-68
2022/12/09 05:25:49;;;;;;;13.35;8.38;;;;;;;1.48;90.28;100189.66;5044482;28;20080;-68
2022/12/09 05:28:15;;;;;;;16.38;9.77;;;;;;;1.47;90.66;100185.38;5044861;28;20370;-68
2022/12/09 05:30:41;;;;;;;17.35;9.63;;;;;;;1.44;91.12;100185.31;5043984;28;20041;-68
2022/12/09 05:33:06;;;;;;;19.95;11.40;;;;;;;1.43;91.11;100181.03;5044500;28;20032;-68
2022/12/09 05:35:32;;;;;;;17.60;10.30;;;;;;;1.43;91.19;100175.94;5049230;28;20040;-68
2022/12/09 05:37:57;;;;;;;17.92;11.00;;;;;;;1.41;91.11;100175.94;5044835;28;20118;-68
2022/12/09 05:40:23;;;;;;;18.52;10.63;;;;;;;1.39;91.07;100175.03;5058049;28;20040;-68
2022/12/09 05:42:48;;;;;;;14.45;10.02;;;;;;;1.34;91.36;100169.00;5062629;28;20036;-68
2022/12/09 05:45:13;;;;;;;16.25;9.30;;;;;;;1.29;91.50;100168.94;5064090;28;20035;-69
2022/12/09 05:47:39;;;;;;;16.60;9.73;;;;;;;1.24;91.49;100177.31;5064819;28;20469;-68
2022/12/09 05:50:06;;;;;;;16.73;10.32;;;;;;;1.17;91.55;100162.72;5063726;28;20036;-68
2022/12/09 05:52:34;;;;;;;15.73;9.63;;;;;;;1.13;91.90;100171.13;5052422;28;20052;-69
2022/12/09 05:55:04;;;;;;;18.77;11.30;;;;;;;1.08;92.06;100168.50;5046319;28;20033;-69
2022/12/09 05:57:32;;;;;;;19.08;10.02;;;;;;;1.02;92.23;100170.94;5047099;28;20086;-68
2022/12/09 05:59:57;;;;;;;15.45;9.73;;;;;;;0.98;92.08;100160.63;5045335;28;20036;-63
2022/12/09 06:02:23;;;;;;;18.42;9.73;;;;;;;0.96;92.50;100164.84;5045323;28;20040;-68
2022/12/09 06:04:48;;;;;;;16.50;10.05;;;;;;;0.91;92.79;100162.22;5043665;28;20692;-68
2022/12/09 06:07:13;;;;;;;15.60;10.23;;;;;;;0.88;92.78;100159.63;5055785;28;20031;-68
2022/12/09 06:09:39;;;;;;;15.57;8.68;;;;;;;0.83;92.76;100156.09;5044076;28;20049;-69
2022/12/09 06:12:05;;;;;;;15.88;9.48;;;;;;;0.78;93.00;100152.63;5044244;28;20094;-67
2022/12/09 06:14:40;;;;;;;15.18;9.13;;;;;;;0.72;93.01;100155.03;5043638;28;20049;-68
2022/12/09 06:17:05;;;;;;;15.75;9.63;;;;;;;0.68;93.00;100148.16;5041846;28;20140;-68
2022/12/09 06:19:30;;;;;;;16.25;9.52;;;;;;;0.62;92.86;100156.50;5042825;28;20047;-69
2022/12/09 06:21:56;;;;;;;19.55;10.30;;;;;;;0.58;92.96;100152.19;5037415;28;20561;-67
2022/12/09 06:24:21;;;;;;;13.82;9.25;;;;;;;0.54;93.01;100159.72;5057489;28;20427;-67
2022/12/09 06:26:47;;;;;;;14.60;9.10;;;;;;;0.48;93.42;100157.91;5049190;28;20551;-67
2022/12/09 06:29:12;;;;;;;14.18;9.02;;;;;;;0.44;93.10;100166.28;5054386;28;20044;-68
2022/12/09 06:31:39;;;;;;;14.70;9.60;;;;;;;0.44;93.20;100165.44;5055908;28;20048;-68
2022/12/09 06:34:04;;;;;;;21.23;11.13;;;;;;;0.46;93.84;100171.41;5057642;28;20571;-68
2022/12/09 06:36:30;;;;;;;17.00;10.07;;;;;;;0.47;94.17;100162.97;5061962;28;20025;-68
2022/12/09 06:38:57;;;;;;;20.08;12.13;;;;;;;0.45;94.05;100168.00;5063960;28;20459;-68
2022/12/09 06:41:23;;;;;;;19.00;10.38;;;;;;;0.42;93.66;100160.31;5062635;28;20052;-68
2022/12/09 06:43:48;;;;;;;20.23;12.07;;;;;;;0.41;94.11;100171.28;5062674;28;20020;-69
2022/12/09 06:46:17;;;;;;;17.52;10.05;;;;;;;0.43;93.89;100173.88;5063066;28;20039;-68
2022/12/09 06:48:43;;;;;;;21.35;12.43;;;;;;;0.46;94.51;100167.19;5062256;28;20413;-67
2022/12/09 06:51:09;;;;;;;18.70;10.77;;;;;;;0.53;94.30;100175.78;5060517;28;20028;-67
2022/12/09 06:53:34;;;;;;;18.20;11.20;;;;;;;0.59;94.67;100173.38;5059546;28;20020;-68
2022/12/09 06:56:02;;;;;;;18.90;9.88;;;;;;;0.61;94.71;100170.06;5063108;28;20033;-68
2022/12/09 06:58:27;;;;;;;18.73;11.07;;;;;;;0.64;94.51;100170.13;5065436;28;20068;-68
2022/12/09 07:00:53;;;;;;;28.58;11.15;;;;;;;0.69;94.53;100172.75;5064115;28;20113;-67
2022/12/09 07:03:18;;;;;;;19.30;11.95;;;;;;;0.73;94.32;100169.47;5064283;28;20582;-67
2022/12/09 07:05:43;;;;;;;19.02;12.80;;;;;;;0.76;94.35;100168.66;5061541;28;20511;-67
2022/12/09 07:08:09;;;;;;;22.08;12.30;;;;;;;0.79;94.31;100177.22;5063060;28;20045;-67
2022/12/09 07:10:35;;;;;;;22.90;12.43;;;;;;;0.80;94.06;100178.94;5062495;28;20509;-68
2022/12/09 07:13:00;;;;;;;26.30;12.75;;;;;;;0.82;94.21;100182.38;5062975;28;20037;-68
2022/12/09 07:15:25;;;;;;;22.15;11.95;;;;;;;0.88;94.15;100174.88;5061448;28;20093;-67
2022/12/09 07:17:51;;;;;;;18.08;11.02;;;;;;;0.90;94.17;100175.75;5056585;28;20055;-68
2022/12/09 07:20:16;;;;;;;18.75;11.10;;;;;;;0.91;94.32;100180.03;5055415;28;20085;-68
2022/12/09 07:22:41;;;;;;;16.83;10.10;;;;;;;0.92;94.05;100178.31;5059742;28;20071;-68
2022/12/09 07:25:07;;;;;;;18.00;10.52;;;;;;;0.90;93.97;100177.44;5045970;28;20516;-68
2022/12/09 07:27:33;;;;;;;23.52;13.02;;;;;;;0.89;93.69;100179.13;5055015;28;20045;-67
2022/12/09 07:29:58;;;;;;;24.42;13.30;;;;;;;0.89;93.94;100183.34;5057993;28;20040;-63
2022/12/09 07:32:23;;;;;;;22.85;11.65;;;;;;;0.88;93.73;100186.75;5050765;28;20028;-64
2022/12/09 07:34:49;;;;;;;20.85;11.77;;;;;;;0.88;94.07;100184.19;5061985;28;20064;-64
2022/12/09 07:37:14;;;;;;;23.65;13.20;;;;;;;0.84;94.00;100187.50;5062521;28;20068;-63
2022/12/09 07:39:40;;;;;;;20.55;12.45;;;;;;;0.83;93.98;100189.16;5061308;28;20037;-63
2022/12/09 07:42:05;;;;;;;29.08;13.90;;;;;;;0.86;94.05;100194.31;5061190;28;20081;-64
2022/12/09 07:44:30;;;;;;;27.23;13.45;;;;;;;0.89;93.83;100196.94;5062940;28;20105;-60
2022/12/09 07:46:56;;;;;;;22.42;12.98;;;;;;;0.96;94.09;100201.34;5047170;28;20041;-60
2022/12/09 07:49:21;;;;;;;21.55;11.77;;;;;;;1.04;93.78;100193.84;5040769;28;20516;-60
2022/12/09 07:51:47;;;;;;;20.08;11.63;;;;;;;1.12;93.98;100197.44;5050007;28;20040;-60
2022/12/09 07:54:14;;;;;;;25.65;13.32;;;;;;;1.20;93.73;100195.88;5049333;28;20036;-60
2022/12/09 07:56:40;;;;;;;30.15;12.38;;;;;;;1.26;93.57;100198.56;5042843;28;20039;-60
2022/12/09 07:59:07;;;;;;;25.95;14.38;;;;;;;1.33;93.20;100202.91;5042171;28;20510;-60
2022/12/09 08:01:32;;;;;;;22.73;13.23;;;;;;;1.42;93.01;100195.44;5045627;28;20060;-60
2022/12/09 08:03:57;;;;;;;21.75;13.20;;;;;;;1.44;92.40;100195.50;5062100;28;20055;-60
2022/12/09 08:06:25;;;;;;;22.98;13.48;;;;;;;1.48;92.04;100200.66;5061867;28;20037;-60
2022/12/09 08:08:51;;;;;;;27.52;15.73;;;;;;;1.52;92.02;100202.44;5052267;28;20032;-60
2022/12/09 08:11:22;;;;;;;23.75;13.63;;;;;;;1.57;91.55;100190.66;5041512;28;20033;-59
2022/12/09 08:13:48;;;;;;;27.92;14.10;;;;;;;1.59;91.36;100191.56;5042085;28;20029;-60
2022/12/09 08:16:15;;;;;;;23.67;14.88;;;;;;;1.61;91.19;100192.44;5041146;28;20186;-65
2022/12/09 08:18:41;;;;;;;26.50;14.45;;;;;;;1.62;90.91;100190.75;5059689;28;20713;-69
2022/12/09 08:21:13;;;;;;;28.75;15.52;;;;;;;1.62;91.16;100185.66;5047337;28;20055;-67
2022/12/09 08:23:39;;;;;;;29.60;17.48;;;;;;;1.64;91.18;100183.97;5057177;28;20044;-68
2022/12/09 08:26:05;;;;;;;32.30;17.08;;;;;;;1.63;91.00;100182.25;5060343;28;20024;-68
2022/12/09 08:28:30;;;;;;;38.15;18.38;;;;;;;1.61;90.74;100189.88;5062078;28;20025;-68
2022/12/09 08:30:56;;;;;;;34.67;17.98;;;;;;;1.63;91.15;100188.22;5042473;28;20033;-68
2022/12/09 08:33:23;;;;;;;30.33;16.45;;;;;;;1.65;91.47;100181.47;5057983;28;20048;-68
2022/12/09 08:35:49;;;;;;;31.75;16.80;;;;;;;1.68;91.59;100189.16;5048195;28;20403;-68
2022/12/09 08:38:14;;;;;;;28.42;16.40;;;;;;;1.74;91.63;100181.63;5052149;28;20099;-67
2022/12/09 08:40:40;;;;;;;31.45;16.13;;;;;;;1.77;91.33;100191.03;5041618;28;20040;-68
2022/12/09 08:43:10;;;;;;;31.58;15.68;;;;;;;1.80;91.13;100186.84;5042640;28;20133;-68
2022/12/09 08:45:37;;;;;;;28.05;15.10;;;;;;;1.85;91.05;100189.44;5041880;28;20044;-68
2022/12/09 08:48:03;;;;;;;34.20;16.83;;;;;;;1.90;91.03;100181.88;5050664;28;20033;-65
2022/12/09 08:50:28;;;;;;;32.33;18.45;;;;;;;1.98;91.21;100193.06;5045589;28;20056;-68
2022/12/09 08:52:54;;;;;;;28.88;16.95;;;;;;;2.05;90.99;100184.69;5058236;28;20035;-67
2022/12/09 08:55:19;;;;;;;31.50;15.40;;;;;;;2.14;90.43;100182.28;5062811;28;20453;-68
2022/12/09 08:57:45;;;;;;;42.22;24.85;;;;;;;2.23;89.70;100182.44;5052298;28;20044;-68
2022/12/09 09:00:10;;;;;;;52.00;31.38;;;;;;;2.29;90.07;100180.84;5043103;28;20032;-68
2022/12/09 09:02:36;;;;;;;39.05;22.98;;;;;;;2.39;89.98;100184.38;5045966;28;20115;-68
2022/12/09 09:05:01;;;;;;;49.25;26.55;;;;;;;2.41;89.58;100178.47;5045311;28;20430;-68
2022/12/09 09:07:28;;;;;;;30.00;16.65;;;;;;;2.50;89.48;100187.09;5045004;28;20410;-62
2022/12/09 09:09:54;;;;;;;28.70;15.18;;;;;;;2.54;88.99;100194.81;5033630;28;20045;-62
2022/12/09 09:12:19;;;;;;;27.80;16.35;;;;;;;2.57;88.56;100184.66;5044510;28;20421;-62
2022/12/09 09:14:44;;;;;;;33.22;16.77;;;;;;;2.63;88.48;100184.75;5045461;28;20029;-62
2022/12/09 09:17:10;;;;;;;30.40;16.75;;;;;;;2.68;87.91;100184.78;5049235;28;20040;-62
2022/12/09 09:19:35;;;;;;;25.75;17.25;;;;;;;2.74;88.13;100187.44;5059291;28;20037;-63
2022/12/09 09:22:00;;;;;;;31.00;15.45;;;;;;;2.71;86.65;100190.81;5064731;28;20020;-62
2022/12/09 09:24:26;;;;;;;28.05;15.15;;;;;;;2.73;87.22;100195.91;5064778;28;20413;-63
2022/12/09 09:26:52;;;;;;;32.50;17.05;;;;;;;2.79;87.48;100196.84;5065726;28;20505;-62
2022/12/09 09:29:21;;;;;;;27.70;16.58;;;;;;;2.79;86.39;100199.41;5064165;28;20259;-63
2022/12/09 09:31:48;;;;;;;32.35;17.35;;;;;;;2.83;86.27;100197.75;5064821;28;20037;-62
2022/12/09 09:34:16;;;;;;;33.25;17.55;;;;;;;2.89;86.28;100191.06;5065114;28;20432;-62
2022/12/09 09:36:41;;;;;;;28.00;16.65;;;;;;;2.95;85.57;100197.94;5065059;28;20047;-62
2022/12/09 09:39:06;;;;;;;35.58;18.20;;;;;;;2.99;85.58;100190.31;5063155;28;20029;-63
2022/12/09 09:41:48;;;;;;;27.33;15.95;;;;;;;3.07;85.11;100187.00;5064763;28;20072;-62
2022/12/09 09:44:34;;;;;;;28.38;16.25;;;;;;;3.18;85.37;100193.09;5059535;28;20059;-62
2022/12/09 09:47:02;;;;;;;26.50;15.25;;;;;;;3.21;85.28;100195.69;5058745;28;20032;-62
2022/12/09 09:49:35;;;;;;;33.03;15.68;;;;;;;3.22;84.33;100194.88;5064272;28;20165;-63
2022/12/09 09:52:11;;;;;;;24.80;14.00;;;;;;;3.26;84.34;100191.53;5051804;28;20047;-62
2022/12/09 09:54:37;;;;;;;29.98;16.17;;;;;;;3.24;84.41;100196.59;5062214;28;20109;-63
2022/12/09 09:57:24;;;;;;;29.25;15.70;;;;;;;3.18;84.71;100188.00;5063004;28;20793;-62
2022/12/09 10:00:01;;;;;;;27.67;15.15;;;;;;;3.24;84.39;100196.59;5062801;28;20032;-62
2022/12/09 10:02:58;;;;;;;29.80;15.35;;;;;;;3.27;84.07;100186.41;5062161;28;20703;-62
2022/12/09 10:05:35;;;;;;;24.83;14.60;;;;;;;3.34;85.03;100179.69;5064099;28;20040;-63
2022/12/09 10:08:29;;;;;;;26.13;13.98;;;;;;;3.44;84.07;100174.69;5060419;28;20065;-60
2022/12/09 10:11:00;;;;;;;22.02;13.82;;;;;;;3.50;83.81;100174.75;5043386;28;20797;-60
2022/12/09 10:13:45;;;;;;;25.30;13.63;;;;;;;3.51;82.37;100166.25;5043865;28;20098;-60
2022/12/09 10:16:16;;;;;;;25.48;14.30;;;;;;;3.51;82.90;100163.69;5047109;28;20044;-60
2022/12/09 10:19:02;;;;;;;27.98;15.68;;;;;;;3.55;82.82;100169.69;5055039;28;20036;-60
2022/12/09 10:21:30;;;;;;;22.52;13.55;;;;;;;3.52;81.76;100167.97;5045811;28;20025;-60
2022/12/09 10:24:11;;;;;;;23.02;13.85;;;;;;;3.56;82.82;100165.44;5043860;28;20036;-61
2022/12/09 10:26:37;;;;;;;24.85;14.75;;;;;;;3.56;82.91;100166.28;5044541;28;20047;-69
2022/12/09 10:29:12;;;;;;;29.48;15.18;;;;;;;3.67;82.08;100161.28;5034596;28;20049;-69
2022/12/09 10:31:37;;;;;;;30.67;14.80;;;;;;;3.67;81.80;100157.03;5047229;28;20082;-68
2022/12/09 10:34:03;;;;;;;25.63;14.40;;;;;;;3.77;81.10;100150.28;5061304;28;20698;-68
2022/12/09 10:36:31;;;;;;;24.80;14.80;;;;;;;3.87;80.26;100154.66;5042829;28;20140;-69
2022/12/09 10:38:56;;;;;;;25.58;14.98;;;;;;;4.04;80.49;100148.84;5047579;28;20039;-68
2022/12/09 10:44:25;;;;;;;20.83;11.70;;;;;;;4.23;77.76;100134.50;5033737;28;20040;-68
2022/12/09 10:47:03;;;;;;;17.55;11.25;;;;;;;4.13;76.88;100127.59;5022532;28;20038;-69
2022/12/09 10:49:30;;;;;;;21.65;11.40;;;;;;;4.12;77.37;100140.38;5046307;28;20537;-68
2022/12/09 10:51:57;;;;;;;21.27;11.98;;;;;;;4.11;77.64;100134.41;5059116;28;20123;-68
2022/12/09 10:54:36;;;;;;;21.40;12.18;;;;;;;4.08;77.55;100125.00;5051925;28;20029;-68
2022/12/09 10:57:13;;;;;;;23.85;13.43;;;;;;;4.05;78.47;100129.25;5043507;28;20777;-68
2022/12/09 10:59:41;;;;;;;22.73;13.68;;;;;;;3.97;79.30;100134.28;5043370;28;20033;-68
2022/12/09 11:02:06;;;;;;;23.33;12.68;;;;;;;3.97;79.56;100136.00;5043293;28;20083;-69
2022/12/09 11:04:32;;;;;;;20.13;11.82;;;;;;;3.94;78.28;100135.97;5042881;28;20041;-69
2022/12/09 11:07:10;;;;;;;19.20;12.52;;;;;;;3.93;78.82;100137.66;5051185;28;20036;-69
2022/12/09 11:09:43;;;;;;;21.77;12.15;;;;;;;3.95;78.54;100133.41;5045709;28;20129;-69
2022/12/09 11:12:35;;;;;;;17.27;11.23;;;;;;;3.98;78.76;100135.13;5044713;28;20482;-68
2022/12/09 11:15:04;;;;;;;21.17;12.38;;;;;;;3.98;77.74;100122.34;5048294;28;20032;-69
2022/12/09 11:17:33;;;;;;;15.75;10.57;;;;;;;3.96;78.04;100129.16;5055726;28;20128;-69
2022/12/09 11:20:04;;;;;;;19.75;12.13;;;;;;;3.93;77.61;100122.34;5056613;28;21719;-69
2022/12/09 11:22:39;;;;;;;22.13;11.05;;;;;;;3.94;77.70;100121.47;5045921;28;20131;-67
2022/12/09 11:25:10;;;;;;;18.45;10.30;;;;;;;4.00;77.19;100124.06;5059084;28;20037;-68
2022/12/09 11:27:39;;;;;;;16.55;10.45;;;;;;;3.99;75.48;100116.41;5061076;28;20044;-69
2022/12/09 11:30:13;;;;;;;17.95;11.73;;;;;;;4.01;76.05;100119.81;5053996;28;20428;-69
2022/12/09 11:33:12;;;;;;;21.93;13.03;;;;;;;3.93;76.96;100119.78;5061553;28;20056;-69